Time;durP1;ratioP1;P1;durP2;ratioP2;P2;SDS_P1;SDS_P2;PMS_P1;PMS_P2;Temp;Humidity;BMP_temperature;BMP_pressure;BME280_temperature;BME280_humidity;BME280_pressure;Samples;Min_cycle;Max_cycle;Signal;HPM_P1;HPM_P2
2022/03/19 00:02:20;;;;;;;26.35;16.38;;;;;;;6.55;59.30;101172.75;2623992;39;20552;-63
2022/03/19 00:04:51;;;;;;;25.60;16.35;;;;;;;6.55;59.11;101166.66;2621601;54;20038;-63
2022/03/19 00:07:21;;;;;;;29.13;16.38;;;;;;;6.50;59.63;101169.63;2622277;39;20437;-63
2022/03/19 00:09:50;;;;;;;29.15;18.00;;;;;;;6.47;59.38;101171.63;2621839;54;20030;-63
2022/03/19 00:12:20;;;;;;;27.13;17.67;;;;;;;6.46;59.57;101173.41;2621599;54;20038;-63
2022/03/19 00:14:50;;;;;;;25.50;16.65;;;;;;;6.39;59.96;101170.38;2621623;54;20038;-62
2022/03/19 00:17:22;;;;;;;29.13;17.23;;;;;;;6.40;59.93;101172.03;2621497;54;20033;-63
2022/03/19 00:19:52;;;;;;;25.65;16.10;;;;;;;6.38;60.10;101171.31;2622330;54;20038;-63
2022/03/19 00:22:22;;;;;;;26.92;15.57;;;;;;;6.37;59.99;101168.81;2622589;54;20041;-63
2022/03/19 00:24:51;;;;;;;29.77;17.77;;;;;;;6.42;59.60;101166.69;2621446;54;20031;-64
2022/03/19 00:27:21;;;;;;;24.98;15.68;;;;;;;6.41;60.07;101162.41;2622789;54;20061;-63
2022/03/19 00:29:50;;;;;;;27.13;15.32;;;;;;;6.41;59.97;101165.88;2622563;54;20030;-62
2022/03/19 00:32:22;;;;;;;29.95;16.20;;;;;;;6.33;60.04;101168.19;2623366;54;20033;-63
2022/03/19 00:34:52;;;;;;;27.13;16.02;;;;;;;6.28;59.88;101161.56;2622931;54;20018;-63
2022/03/19 00:37:21;;;;;;;26.17;15.32;;;;;;;6.18;60.07;101164.84;2623131;54;20109;-63
2022/03/19 00:39:52;;;;;;;21.75;15.13;;;;;;;6.18;60.55;101161.38;2623674;54;20046;-62
2022/03/19 00:42:21;;;;;;;26.10;15.43;;;;;;;6.23;60.59;101163.66;2623660;54;20038;-65
2022/03/19 00:44:51;;;;;;;27.63;16.23;;;;;;;6.27;59.93;101163.34;2624139;54;20038;-63
2022/03/19 00:47:23;;;;;;;23.80;16.00;;;;;;;6.23;59.89;101156.63;2624384;54;20031;-65
2022/03/19 00:49:52;;;;;;;22.63;14.27;;;;;;;6.22;60.25;101154.13;2624118;54;20038;-63
2022/03/19 00:52:23;;;;;;;25.35;15.35;;;;;;;6.14;60.54;101154.66;2624760;54;20049;-63
2022/03/19 00:54:52;;;;;;;26.67;15.65;;;;;;;6.15;59.83;101156.31;2624441;54;20054;-63
2022/03/19 00:57:23;;;;;;;26.00;15.43;;;;;;;6.12;60.12;101152.16;2624643;54;20073;-64
2022/03/19 00:59:52;;;;;;;24.90;14.98;;;;;;;6.12;60.13;101156.53;2624535;54;20027;-64
2022/03/19 01:02:26;;;;;;;29.77;15.40;;;;;;;6.11;60.48;101149.59;2623433;47;20319;-62
2022/03/19 01:04:55;;;;;;;35.65;15.63;;;;;;;6.05;60.19;101153.50;2623459;54;20030;-62
2022/03/19 01:07:25;;;;;;;26.63;14.57;;;;;;;6.04;60.74;101162.34;2624103;54;20031;-62
2022/03/19 01:09:54;;;;;;;28.35;14.43;;;;;;;6.05;60.37;101155.28;2624093;54;20071;-63
2022/03/19 01:12:24;;;;;;;27.42;13.85;;;;;;;6.05;60.50;101156.13;2624523;54;20041;-63
2022/03/19 01:14:54;;;;;;;26.35;15.02;;;;;;;6.05;60.53;101148.25;2624216;54;20042;-62
2022/03/19 01:17:27;;;;;;;22.48;14.75;;;;;;;6.03;59.98;101144.03;2624604;54;20035;-63
2022/03/19 01:19:59;;;;;;;22.88;13.85;;;;;;;5.97;60.07;101147.94;2624567;54;20043;-63
2022/03/19 01:22:28;;;;;;;27.70;13.55;;;;;;;5.95;60.34;101144.56;2624082;54;20564;-62
2022/03/19 01:25:00;;;;;;;18.27;12.48;;;;;;;5.89;60.54;101143.19;2623990;54;20054;-64
2022/03/19 01:27:29;;;;;;;24.42;13.88;;;;;;;5.90;60.47;101144.03;2624302;54;20033;-64
2022/03/19 01:29:59;;;;;;;26.33;13.48;;;;;;;5.90;60.44;101146.66;2624295;54;20054;-63
2022/03/19 01:32:31;;;;;;;27.65;13.25;;;;;;;5.92;60.41;101142.19;2624215;54;20038;-62
2022/03/19 01:35:01;;;;;;;22.63;13.30;;;;;;;5.89;59.99;101135.31;2623340;54;20050;-63
2022/03/19 01:37:31;;;;;;;26.17;13.20;;;;;;;5.82;60.04;101141.91;2622927;47;20035;-62
2022/03/19 01:40:00;;;;;;;24.95;13.32;;;;;;;5.75;60.27;101138.03;2624492;54;20030;-63
2022/03/19 01:42:31;;;;;;;24.30;12.07;;;;;;;5.75;60.36;101135.41;2623510;54;20061;-63
2022/03/19 01:45:02;;;;;;;18.50;11.95;;;;;;;5.74;60.05;101133.72;2623389;54;20077;-64
2022/03/19 01:47:34;;;;;;;27.38;13.40;;;;;;;5.79;60.57;101133.41;2624163;54;20039;-64
2022/03/19 01:50:05;;;;;;;19.27;11.90;;;;;;;5.78;60.08;101134.34;2623650;54;20038;-63
2022/03/19 01:52:34;;;;;;;23.40;13.30;;;;;;;5.75;60.09;101131.94;2622682;54;20049;-63
2022/03/19 01:55:06;;;;;;;22.77;12.10;;;;;;;5.69;60.31;101133.19;2619467;54;20130;-62
2022/03/19 01:57:38;;;;;;;20.25;12.30;;;;;;;5.68;59.91;101129.75;2623473;54;20042;-63
2022/03/19 02:00:11;;;;;;;18.00;11.65;;;;;;;5.64;59.71;101130.06;2623337;54;20118;-63
2022/03/19 02:02:43;;;;;;;20.08;12.38;;;;;;;5.62;59.95;101132.78;2623519;54;20038;-64
2022/03/19 02:05:15;;;;;;;22.67;13.47;;;;;;;5.63;60.05;101125.72;2623197;54;20070;-64
2022/03/19 02:07:45;;;;;;;20.98;12.13;;;;;;;5.62;59.92;101126.69;2623876;54;20027;-63
2022/03/19 02:10:16;;;;;;;23.67;13.05;;;;;;;5.64;59.99;101125.66;2623765;46;20122;-63
2022/03/19 02:12:46;;;;;;;19.48;11.85;;;;;;;5.65;60.08;101126.47;2623134;54;20078;-63
2022/03/19 02:15:17;;;;;;;20.42;12.23;;;;;;;5.70;60.20;101125.22;2623479;54;20038;-64
2022/03/19 02:17:49;;;;;;;24.33;12.00;;;;;;;5.70;59.88;101125.22;2623810;54;20065;-62
2022/03/19 02:20:19;;;;;;;23.10;12.57;;;;;;;5.70;60.19;101127.00;2622849;54;20151;-64
2022/03/19 02:25:39;;;;;;;24.02;11.50;;;;;;;5.76;59.50;101121.34;2624559;39;20438;-63
2022/03/19 02:28:09;;;;;;;20.88;11.63;;;;;;;5.74;60.10;101117.13;2623202;54;20561;-62
2022/03/19 02:30:41;;;;;;;24.00;12.85;;;;;;;5.75;59.97;101119.66;2623067;54;20034;-62
2022/03/19 02:33:12;;;;;;;23.90;12.43;;;;;;;5.68;59.26;101121.03;2622585;54;20023;-63
2022/03/19 02:35:41;;;;;;;19.75;11.18;;;;;;;5.66;59.96;101113.25;2623745;39;20449;-64
2022/03/19 02:38:12;;;;;;;20.48;12.25;;;;;;;5.75;59.98;101113.56;2623383;54;20029;-63
2022/03/19 02:40:44;;;;;;;21.88;12.27;;;;;;;5.74;59.61;101109.28;2622911;47;20027;-63
2022/03/19 02:43:14;;;;;;;20.38;12.50;;;;;;;5.77;59.75;101112.53;2623414;54;20034;-63
2022/03/19 02:45:48;;;;;;;21.02;11.32;;;;;;;5.72;59.55;101099.72;2622507;54;20035;-63
2022/03/19 02:48:18;;;;;;;26.25;12.98;;;;;;;5.64;59.55;101093.31;2622714;54;20033;-63
2022/03/19 02:50:48;;;;;;;22.38;12.60;;;;;;;5.55;59.74;101092.16;2623144;54;20034;-63
2022/03/19 02:53:17;;;;;;;18.98;11.05;;;;;;;5.51;59.96;101093.31;2623689;54;20572;-63
2022/03/19 02:55:49;;;;;;;22.08;10.88;;;;;;;5.54;60.06;101098.34;2624236;54;20042;-62
2022/03/19 02:58:19;;;;;;;21.73;11.98;;;;;;;5.59;59.89;101095.41;2624075;54;20045;-62
2022/03/19 03:00:49;;;;;;;20.00;11.45;;;;;;;5.60;59.77;101099.72;2622238;54;20099;-63
2022/03/19 03:03:21;;;;;;;23.42;12.77;;;;;;;5.57;59.76;101099.94;2621820;54;20027;-63
2022/03/19 03:05:50;;;;;;;20.60;11.10;;;;;;;5.53;59.93;101101.06;2621595;54;20073;-64
2022/03/19 03:08:20;;;;;;;23.75;12.50;;;;;;;5.51;60.07;101095.94;2622315;54;20038;-63
2022/03/19 03:10:52;;;;;;;19.23;11.38;;;;;;;5.50;60.01;101094.25;2623286;54;20046;-63
2022/03/19 03:13:22;;;;;;;17.13;11.05;;;;;;;5.56;59.94;101095.63;2623459;54;20034;-63
2022/03/19 03:15:51;;;;;;;22.38;11.93;;;;;;;5.58;59.65;101091.09;2621660;54;20046;-63
2022/03/19 03:18:22;;;;;;;18.85;11.45;;;;;;;5.54;59.53;101094.88;2622447;54;20027;-64
2022/03/19 03:20:52;;;;;;;24.23;11.85;;;;;;;5.50;59.72;101088.16;2622032;54;20093;-64
2022/03/19 03:23:22;;;;;;;21.67;11.13;;;;;;;5.45;59.35;101091.94;2621961;54;20035;-64
2022/03/19 03:25:54;;;;;;;15.85;10.45;;;;;;;5.41;59.67;101087.84;2621996;54;20042;-63
2022/03/19 03:28:24;;;;;;;23.42;11.70;;;;;;;5.39;59.70;101089.75;2622039;54;20035;-63
2022/03/19 03:30:54;;;;;;;20.95;10.98;;;;;;;5.40;60.07;101094.03;2621220;54;20537;-64
2022/03/19 03:33:23;;;;;;;23.23;12.57;;;;;;;5.30;60.01;101095.59;2621860;54;20042;-64
2022/03/19 03:35:53;;;;;;;21.42;11.57;;;;;;;5.28;60.02;101094.84;2619948;54;20022;-64
2022/03/19 03:38:22;;;;;;;23.35;12.65;;;;;;;5.27;60.06;101093.19;2619385;54;20138;-63
2022/03/19 03:40:54;;;;;;;21.38;11.63;;;;;;;5.31;60.44;101094.66;2619901;54;20586;-64
2022/03/19 03:43:24;;;;;;;21.48;12.25;;;;;;;5.35;60.15;101093.50;2619964;54;20038;-64
2022/03/19 03:45:54;;;;;;;21.02;10.32;;;;;;;5.40;60.28;101096.66;2620513;54;20030;-64
2022/03/19 03:48:23;;;;;;;22.63;11.23;;;;;;;5.41;59.95;101095.72;2621325;54;20031;-63
2022/03/19 03:50:55;;;;;;;19.42;10.90;;;;;;;5.33;59.94;101098.00;2621884;54;20077;-63
2022/03/19 03:53:27;;;;;;;20.50;10.45;;;;;;;5.32;59.73;101090.25;2622590;54;20085;-63
2022/03/19 03:56:00;;;;;;;20.80;10.50;;;;;;;5.31;59.97;101088.59;2624256;54;20037;-63
2022/03/19 03:58:30;;;;;;;22.92;11.27;;;;;;;5.28;59.77;101079.13;2624647;39;20437;-63
2022/03/19 04:01:00;;;;;;;22.35;10.45;;;;;;;5.27;60.33;101080.06;2622978;54;20038;-63
2022/03/19 04:03:30;;;;;;;21.20;11.07;;;;;;;5.25;60.28;101087.19;2623648;39;20501;-63
2022/03/19 04:05:59;;;;;;;22.80;12.32;;;;;;;5.21;60.45;101085.72;2621844;54;20035;-63
2022/03/19 04:08:29;;;;;;;18.42;10.55;;;;;;;5.24;60.36;101082.91;2621664;54;20090;-63
2022/03/19 04:11:01;;;;;;;21.52;11.40;;;;;;;5.26;60.22;101080.16;2622712;39;20462;-63
2022/03/19 04:13:31;;;;;;;24.58;10.98;;;;;;;5.24;59.86;101082.91;2622194;54;20031;-63
2022/03/19 04:16:00;;;;;;;22.30;12.02;;;;;;;5.16;60.07;101083.41;2623245;39;20426;-63
2022/03/19 04:18:30;;;;;;;20.02;12.15;;;;;;;5.09;60.61;101076.03;2623393;54;20045;-63
2022/03/19 04:21:00;;;;;;;23.73;11.40;;;;;;;5.07;60.29;101075.31;2624043;39;20439;-63
2022/03/19 04:23:29;;;;;;;21.60;11.00;;;;;;;5.13;60.53;101077.50;2623933;39;20430;-63
2022/03/19 04:26:02;;;;;;;24.63;12.50;;;;;;;5.07;60.42;101077.94;2624069;54;20031;-63
2022/03/19 04:28:31;;;;;;;20.23;10.93;;;;;;;4.95;60.39;101071.72;2624227;54;20026;-63
2022/03/19 04:31:01;;;;;;;25.70;11.35;;;;;;;4.90;60.89;101073.81;2624151;54;20037;-63
2022/03/19 04:33:31;;;;;;;20.88;11.43;;;;;;;4.90;60.81;101082.50;2623953;54;20073;-63
2022/03/19 04:38:43;;;;;;;23.35;11.93;;;;;;;4.88;61.34;101070.44;2624180;54;20038;-63
2022/03/19 04:41:15;;;;;;;21.15;12.05;;;;;;;4.94;61.11;101076.13;2623819;54;20041;-63
2022/03/19 04:43:45;;;;;;;21.05;12.30;;;;;;;4.96;60.54;101069.00;2624974;39;20555;-63
2022/03/19 04:46:15;;;;;;;19.40;12.10;;;;;;;4.91;60.81;101067.63;2624076;54;20126;-63
2022/03/19 04:48:45;;;;;;;24.08;12.07;;;;;;;4.90;60.93;101063.31;2624293;39;20431;-63
2022/03/19 04:51:16;;;;;;;19.10;11.23;;;;;;;4.88;60.81;101055.53;2623820;39;20635;-63
2022/03/19 04:53:50;;;;;;;25.70;12.43;;;;;;;4.84;60.96;101056.69;2624150;39;20413;-63
2022/03/19 04:56:26;;;;;;;20.02;11.20;;;;;;;4.81;61.33;101056.03;2624383;54;20027;-63
2022/03/19 04:58:59;;;;;;;21.80;11.27;;;;;;;4.81;60.90;101053.44;2624066;47;20094;-64
2022/03/19 05:01:29;;;;;;;21.70;11.55;;;;;;;4.74;61.17;101060.88;2623140;39;20445;-62
2022/03/19 05:03:59;;;;;;;26.00;12.43;;;;;;;4.67;61.22;101057.78;2623696;54;20188;-61
2022/03/19 05:06:30;;;;;;;22.15;11.93;;;;;;;4.62;61.42;101059.88;2621947;47;20029;-63
2022/03/19 05:11:44;;;;;;;25.67;12.18;;;;;;;4.56;61.92;101065.50;2621401;54;20038;-62
2022/03/19 05:14:14;;;;;;;21.27;11.68;;;;;;;4.52;61.76;101060.56;2621641;54;20041;-63
2022/03/19 05:16:44;;;;;;;25.33;12.20;;;;;;;4.52;61.86;101071.03;2617561;54;20034;-68
2022/03/19 05:19:13;;;;;;;22.77;11.95;;;;;;;4.48;62.22;101068.59;2617654;47;20034;-68
2022/03/19 05:21:43;;;;;;;24.65;12.45;;;;;;;4.46;62.30;101064.44;2617467;54;20054;-68
2022/03/19 05:24:12;;;;;;;24.48;13.00;;;;;;;4.46;62.10;101061.81;2618026;54;20552;-68
2022/03/19 05:26:44;;;;;;;21.92;12.32;;;;;;;4.49;62.35;101064.25;2617478;54;20125;-67
2022/03/19 05:29:14;;;;;;;24.60;14.02;;;;;;;4.47;62.35;101066.09;2618517;54;20049;-68
2022/03/19 05:31:49;;;;;;;40.50;25.45;;;;;;;4.51;62.23;101062.34;2618141;39;20525;-69
2022/03/19 05:37:02;;;;;;;27.02;12.88;;;;;;;4.58;62.27;101057.56;2618067;54;20077;-68
2022/03/19 05:39:33;;;;;;;22.50;12.27;;;;;;;4.55;62.27;101068.22;2618003;54;20118;-68
2022/03/19 05:42:07;;;;;;;18.55;10.82;;;;;;;4.53;62.31;101059.63;2617890;54;20026;-68
2022/03/19 05:44:36;;;;;;;23.55;12.07;;;;;;;4.54;62.75;101064.78;2617821;54;20045;-67
2022/03/19 05:47:06;;;;;;;20.58;11.25;;;;;;;4.55;62.10;101057.75;2617905;54;20121;-68
2022/03/19 05:49:36;;;;;;;21.52;11.23;;;;;;;4.48;62.12;101059.91;2617304;54;20097;-68
2022/03/19 05:52:07;;;;;;;25.55;12.18;;;;;;;4.47;62.62;101066.09;2617886;54;20045;-68
2022/03/19 05:54:36;;;;;;;22.27;11.68;;;;;;;4.43;62.54;101057.59;2617820;54;20035;-67
2022/03/19 05:57:09;;;;;;;23.90;11.77;;;;;;;4.43;62.87;101064.63;2618170;39;20429;-69
2022/03/19 05:59:38;;;;;;;22.50;11.00;;;;;;;4.43;62.93;101060.22;2618510;39;20319;-68
2022/03/19 06:02:08;;;;;;;22.58;11.50;;;;;;;4.39;63.07;101061.34;2617915;54;20081;-67
2022/03/19 06:04:39;;;;;;;23.55;11.40;;;;;;;4.51;62.85;101057.09;2617486;39;20550;-69
2022/03/19 06:07:09;;;;;;;21.60;12.02;;;;;;;4.57;62.62;101054.09;2618116;54;20591;-68
2022/03/19 06:09:38;;;;;;;23.80;11.45;;;;;;;4.55;62.88;101055.13;2617519;47;20038;-68
2022/03/19 06:12:11;;;;;;;24.52;12.00;;;;;;;4.54;62.42;101053.47;2617267;47;20068;-68
2022/03/19 06:14:41;;;;;;;25.33;11.93;;;;;;;4.51;62.51;101058.88;2617627;54;20038;-69
2022/03/19 06:17:11;;;;;;;20.52;12.45;;;;;;;4.53;63.02;101057.00;2618210;39;20721;-66
2022/03/19 06:19:40;;;;;;;38.67;22.02;;;;;;;4.57;63.16;101056.72;2617740;54;20030;-67
2022/03/19 06:22:10;;;;;;;29.48;13.70;;;;;;;4.60;63.06;101055.66;2617635;54;20050;-67
2022/03/19 06:24:39;;;;;;;25.40;12.85;;;;;;;4.60;62.73;101056.50;2617874;39;20458;-67
2022/03/19 06:27:12;;;;;;;22.17;12.20;;;;;;;4.61;63.36;101052.09;2617064;54;20026;-69
2022/03/19 06:29:42;;;;;;;24.92;13.05;;;;;;;4.75;62.96;101056.47;2617249;46;20049;-69
2022/03/19 06:32:12;;;;;;;21.88;12.70;;;;;;;4.82;62.57;101053.34;2617702;54;20038;-66
2022/03/19 06:34:41;;;;;;;19.80;12.07;;;;;;;4.83;62.67;101049.78;2617767;54;20596;-69
2022/03/19 06:37:21;;;;;;;21.80;12.23;;;;;;;4.92;62.68;101046.53;2619744;54;20061;-67
2022/03/19 06:39:54;;;;;;;20.52;11.25;;;;;;;4.98;62.49;101047.94;2620276;31;20499;-68
2022/03/19 06:42:27;;;;;;;29.88;13.00;;;;;;;5.09;62.64;101047.19;2617827;47;20034;-68
2022/03/19 06:44:57;;;;;;;25.83;13.05;;;;;;;5.12;62.55;101041.75;2619735;31;20523;-68
2022/03/19 06:47:26;;;;;;;28.25;14.57;;;;;;;5.17;62.33;101047.53;2618723;54;20038;-68
2022/03/19 06:49:57;;;;;;;24.70;12.85;;;;;;;5.24;62.32;101038.31;2619219;54;20038;-68
2022/03/19 06:52:28;;;;;;;31.40;19.17;;;;;;;5.27;61.77;101047.78;2619100;39;20474;-68
2022/03/19 06:54:58;;;;;;;24.95;15.02;;;;;;;5.31;62.27;101042.22;2617717;54;20039;-69
2022/03/19 06:57:30;;;;;;;24.35;12.70;;;;;;;5.42;62.52;101038.84;2618879;54;20027;-67
2022/03/19 07:00:00;;;;;;;25.90;14.07;;;;;;;5.56;62.24;101040.53;2619354;39;20430;-67
2022/03/19 07:02:29;;;;;;;20.27;11.10;;;;;;;5.57;61.95;101034.34;2617855;54;20030;-68
2022/03/19 07:05:02;;;;;;;20.10;11.60;;;;;;;5.66;61.76;101036.31;2617531;47;20034;-73
2022/03/19 07:07:33;;;;;;;19.15;11.75;;;;;;;5.71;61.32;101040.31;2618858;54;20536;-68
2022/03/19 07:10:03;;;;;;;21.88;12.35;;;;;;;5.75;61.33;101033.03;2618864;54;20038;-68
2022/03/19 07:12:43;;;;;;;22.02;12.55;;;;;;;5.76;61.60;101042.63;2618932;54;20049;-68
2022/03/19 07:15:15;;;;;;;24.02;12.23;;;;;;;5.86;61.19;101033.13;2618205;54;20038;-67
2022/03/19 07:17:45;;;;;;;20.00;11.80;;;;;;;5.99;61.31;101033.13;2617961;54;20027;-67
2022/03/19 07:20:17;;;;;;;23.83;13.23;;;;;;;6.08;60.50;101037.75;2618026;54;20055;-68
2022/03/19 07:22:51;;;;;;;25.58;13.65;;;;;;;6.13;60.47;101038.25;2619070;54;20029;-70
2022/03/19 07:25:24;;;;;;;25.48;13.77;;;;;;;6.18;60.67;101032.69;2620045;54;20046;-69
2022/03/19 07:27:58;;;;;;;23.25;12.25;;;;;;;6.29;60.24;101035.38;2619538;39;20442;-68
2022/03/19 07:30:28;;;;;;;23.48;11.60;;;;;;;6.36;60.23;101031.34;2619118;54;20034;-69
2022/03/19 07:32:57;;;;;;;18.50;11.38;;;;;;;6.44;59.59;101030.78;2618597;54;20570;-68
2022/03/19 07:35:27;;;;;;;22.42;12.10;;;;;;;6.54;59.64;101023.09;2618303;54;20022;-69
2022/03/19 07:37:57;;;;;;;23.55;12.27;;;;;;;6.65;59.13;101034.50;2618632;54;20038;-68
2022/03/19 07:43:14;;;;;;;21.00;12.50;;;;;;;6.84;58.52;101028.69;2618373;54;20035;-69
2022/03/19 07:45:51;;;;;;;28.25;13.52;;;;;;;6.86;58.51;101015.44;2618676;54;20065;-68
2022/03/19 07:48:21;;;;;;;23.65;13.35;;;;;;;6.97;58.21;101019.88;2619358;39;20406;-69
2022/03/19 07:50:57;;;;;;;24.95;13.07;;;;;;;7.07;57.61;101018.25;2619042;54;20327;-68
2022/03/19 07:53:27;;;;;;;27.38;13.55;;;;;;;7.16;57.14;101020.19;2618954;54;20573;-68
2022/03/19 07:55:58;;;;;;;25.17;13.23;;;;;;;7.23;57.21;101017.94;2618398;54;20077;-68
2022/03/19 07:58:30;;;;;;;27.70;12.77;;;;;;;7.26;56.61;101015.06;2618411;54;20045;-69
2022/03/19 08:01:00;;;;;;;24.80;13.77;;;;;;;7.34;56.59;101017.94;2620886;54;20026;-70
2022/03/19 08:03:29;;;;;;;26.75;14.27;;;;;;;7.43;56.27;101022.50;2622825;54;20026;-68
2022/03/19 08:05:59;;;;;;;21.05;12.90;;;;;;;7.47;55.73;101018.69;2623170;54;20031;-69
2022/03/19 08:08:30;;;;;;;21.98;11.95;;;;;;;7.46;55.73;101019.63;2623217;54;20034;-69
2022/03/19 08:11:02;;;;;;;25.98;13.55;;;;;;;7.53;55.88;101020.81;2623411;54;20026;-68
2022/03/19 08:13:34;;;;;;;20.42;12.05;;;;;;;7.60;55.54;101021.19;2623143;54;20050;-67
2022/03/19 08:16:04;;;;;;;24.65;13.55;;;;;;;7.64;55.07;101014.75;2623040;54;20034;-67
2022/03/19 08:18:35;;;;;;;21.25;12.85;;;;;;;7.68;55.49;101014.38;2622837;54;20030;-68
2022/03/19 08:21:05;;;;;;;33.72;13.75;;;;;;;7.70;55.38;101019.50;2622694;54;20038;-68
2022/03/19 08:23:35;;;;;;;24.98;12.30;;;;;;;7.75;55.32;101022.63;2622151;54;20572;-67
2022/03/19 08:26:05;;;;;;;23.70;12.63;;;;;;;7.82;55.53;101026.44;2621216;54;20042;-67
2022/03/19 08:28:37;;;;;;;26.80;13.23;;;;;;;7.95;54.58;101011.34;2621424;54;20041;-67
2022/03/19 08:31:07;;;;;;;30.02;15.48;;;;;;;8.01;54.40;101017.94;2620646;54;20082;-66
2022/03/19 08:33:36;;;;;;;28.92;14.55;;;;;;;8.10;54.40;101011.09;2620306;54;20137;-67
2022/03/19 08:36:06;;;;;;;19.25;10.15;;;;;;;8.13;53.67;101006.44;2617972;54;20037;-68
2022/03/19 08:41:18;;;;;;;18.30;12.75;;;;;;;8.12;54.26;101019.69;2617968;47;20549;-68
2022/03/19 08:43:50;;;;;;;21.92;11.52;;;;;;;8.16;54.01;101014.09;2618549;54;20119;-68
2022/03/19 08:46:20;;;;;;;20.80;13.35;;;;;;;8.24;53.69;101017.88;2618355;54;20039;-67
2022/03/19 08:48:49;;;;;;;21.20;11.27;;;;;;;8.29;53.37;101013.94;2618233;54;20034;-68
2022/03/19 08:54:03;;;;;;;20.40;12.63;;;;;;;8.45;53.71;101010.94;2618113;54;20023;-67
2022/03/19 08:56:33;;;;;;;19.55;11.13;;;;;;;8.64;52.63;101015.53;2617677;47;20029;-67
2022/03/19 08:59:06;;;;;;;19.35;9.45;;;;;;;8.61;52.44;101015.75;2618276;54;20034;-67
2022/03/19 09:01:36;;;;;;;18.10;9.10;;;;;;;8.61;52.23;101005.22;2618501;54;20026;-68
2022/03/19 09:04:07;;;;;;;16.05;9.80;;;;;;;8.61;51.86;101007.84;2618016;54;20027;-67
2022/03/19 09:06:36;;;;;;;18.85;10.05;;;;;;;8.54;52.61;101004.06;2618541;54;20034;-67
2022/03/19 09:09:07;;;;;;;15.13;9.55;;;;;;;8.60;52.39;100998.28;2622003;54;20789;-68
2022/03/19 09:11:38;;;;;;;17.10;10.63;;;;;;;8.70;52.31;100999.22;2622846;54;20038;-68
2022/03/19 09:14:11;;;;;;;18.88;9.60;;;;;;;8.81;51.73;100991.22;2621160;54;20659;-69
2022/03/19 09:16:41;;;;;;;21.40;9.80;;;;;;;8.87;51.29;100987.25;2620312;54;20090;-68
2022/03/19 09:19:11;;;;;;;19.35;10.15;;;;;;;8.88;51.63;100986.28;2618393;54;20038;-68
2022/03/19 09:21:41;;;;;;;18.15;9.57;;;;;;;9.00;50.73;100987.06;2618349;54;20038;-71
2022/03/19 09:24:11;;;;;;;18.17;10.65;;;;;;;9.08;50.76;100979.34;2618664;54;20069;-68
2022/03/19 09:26:40;;;;;;;20.58;8.88;;;;;;;9.13;50.23;100972.69;2619076;54;20031;-69
2022/03/19 09:29:14;;;;;;;19.67;10.43;;;;;;;9.11;50.04;100974.63;2618946;54;20033;-69
2022/03/19 09:31:44;;;;;;;16.48;10.15;;;;;;;9.15;50.06;100972.56;2618698;54;20033;-69
2022/03/19 09:34:14;;;;;;;19.63;10.35;;;;;;;9.22;49.79;100978.16;2617563;46;20027;-68
2022/03/19 09:36:46;;;;;;;19.58;10.77;;;;;;;9.16;50.12;100963.69;2618311;54;20034;-69
2022/03/19 09:39:16;;;;;;;24.50;10.85;;;;;;;9.23;49.54;100971.94;2619403;54;20038;-68
2022/03/19 09:41:47;;;;;;;15.63;8.88;;;;;;;9.22;48.61;100960.50;2623044;54;20526;-68
2022/03/19 09:44:19;;;;;;;14.55;9.55;;;;;;;9.11;48.93;100964.09;2622467;54;20557;-67
2022/03/19 09:46:49;;;;;;;15.15;9.02;;;;;;;9.12;49.44;100960.47;2624000;39;20421;-68
2022/03/19 09:49:19;;;;;;;20.85;9.80;;;;;;;9.10;49.92;100957.16;2624204;54;20679;-68
2022/03/19 09:51:55;;;;;;;16.08;8.50;;;;;;;9.14;49.61;100945.34;2624126;54;20030;-68
2022/03/19 09:54:25;;;;;;;19.73;10.40;;;;;;;9.22;49.29;100938.56;2624540;54;20031;-68
2022/03/19 09:56:55;;;;;;;17.70;9.93;;;;;;;9.22;49.37;100928.84;2623067;54;20027;-68
2022/03/19 09:59:27;;;;;;;15.27;9.15;;;;;;;9.14;49.45;100926.88;2618509;39;20442;-68
2022/03/19 10:01:57;;;;;;;13.32;8.50;;;;;;;9.27;49.65;100916.09;2618848;54;20553;-67
2022/03/19 10:04:27;;;;;;;13.82;8.93;;;;;;;9.39;49.16;100907.13;2618177;54;20034;-67
2022/03/19 10:09:45;;;;;;;21.80;8.35;;;;;;;9.75;46.40;100894.28;2618468;54;20061;-69
2022/03/19 10:12:20;;;;;;;14.02;7.45;;;;;;;9.92;45.03;100879.59;2618219;54;20542;-69
2022/03/19 10:14:54;;;;;;;18.65;8.93;;;;;;;10.03;44.19;100889.19;2617752;54;20027;-68
2022/03/19 10:17:31;;;;;;;12.48;6.72;;;;;;;10.11;43.58;100881.38;2617404;47;20026;-68
2022/03/19 10:20:03;;;;;;;12.60;7.32;;;;;;;10.25;42.64;100882.84;2617969;54;20522;-68
2022/03/19 10:22:34;;;;;;;13.18;6.25;;;;;;;10.30;43.10;100865.56;2621795;54;20566;-68
2022/03/19 10:25:07;;;;;;;19.30;8.77;;;;;;;10.37;43.11;100873.78;2623085;54;20026;-70
2022/03/19 10:27:39;;;;;;;10.63;6.50;;;;;;;10.43;41.65;100870.56;2623997;54;20038;-68
2022/03/19 10:30:19;;;;;;;12.40;6.00;;;;;;;10.45;41.28;100860.69;2624042;47;20037;-69
2022/03/19 10:32:52;;;;;;;9.23;5.70;;;;;;;10.56;41.04;100865.81;2623365;54;20022;-69
2022/03/19 10:35:30;;;;;;;12.50;6.95;;;;;;;10.55;41.24;100861.50;2618548;54;20573;-69
2022/03/19 10:38:03;;;;;;;10.85;6.45;;;;;;;10.51;40.79;100849.53;2618307;54;20061;-70
2022/03/19 10:40:40;;;;;;;13.75;6.38;;;;;;;10.61;40.61;100841.56;2619686;54;20549;-70
2022/03/19 10:43:12;;;;;;;11.60;6.18;;;;;;;10.70;40.41;100838.09;2618787;47;20038;-70
2022/03/19 10:45:49;;;;;;;10.25;6.10;;;;;;;10.77;40.10;100830.38;2618995;54;20042;-70
2022/03/19 10:48:21;;;;;;;9.50;5.80;;;;;;;10.85;39.99;100823.38;2619532;54;20023;-69
2022/03/19 10:50:51;;;;;;;12.80;6.18;;;;;;;10.80;39.48;100817.72;2620467;47;20043;-69
2022/03/19 10:53:21;;;;;;;9.45;5.55;;;;;;;10.89;39.83;100810.72;2622460;54;20030;-70
2022/03/19 10:55:51;;;;;;;8.43;4.60;;;;;;;11.02;38.02;100805.94;2620653;54;20030;-69
2022/03/19 10:58:21;;;;;;;8.52;4.03;;;;;;;11.06;37.36;100801.16;2621157;54;20031;-68
2022/03/19 11:01:10;;;;;;;11.70;4.30;;;;;;;11.12;37.46;100796.13;2618746;47;20030;-66
2022/03/19 11:03:43;;;;;;;9.57;5.53;;;;;;;11.12;37.91;100782.88;2617212;47;20824;-66
2022/03/19 11:06:13;;;;;;;8.05;4.18;;;;;;;11.16;38.00;100775.50;2617309;54;20050;-67
2022/03/19 11:08:45;;;;;;;8.50;5.05;;;;;;;11.27;38.41;100779.75;2617434;54;20129;-66
2022/03/19 11:11:19;;;;;;;8.98;5.00;;;;;;;11.37;38.46;100772.56;2617242;47;20034;-69
2022/03/19 11:13:51;;;;;;;7.70;4.15;;;;;;;11.50;37.65;100770.38;2618480;54;20050;-68
2022/03/19 11:16:23;;;;;;;11.30;4.53;;;;;;;11.48;37.59;100768.88;2618962;54;20038;-62
2022/03/19 17:41:17;;;;;;;3.10;1.70;;;;;;;8.66;29.17;100363.22;2604596;39;20453;-68
2022/03/19 17:43:47;;;;;;;4.80;1.85;;;;;;;8.57;29.66;100361.44;2618268;54;20545;-68
2022/03/19 17:46:17;;;;;;;4.95;1.92;;;;;;;8.58;29.56;100367.53;2618026;54;20038;-68
2022/03/19 17:48:47;;;;;;;6.53;2.17;;;;;;;8.53;29.99;100364.47;2617507;47;20035;-67
2022/03/19 17:51:16;;;;;;;3.17;1.88;;;;;;;8.49;29.95;100371.84;2617269;47;20728;-68
2022/03/19 17:53:46;;;;;;;4.57;1.83;;;;;;;8.44;30.36;100368.78;2618172;54;20061;-68
2022/03/19 17:56:18;;;;;;;2.35;1.67;;;;;;;8.37;30.02;100375.63;2618947;54;20030;-61
2022/03/19 17:58:52;;;;;;;3.88;1.80;;;;;;;8.35;30.35;100373.06;2620484;51;20026;-62
2022/03/19 18:01:22;;;;;;;4.72;2.50;;;;;;;8.33;31.60;100377.66;2623506;54;20034;-62
2022/03/19 18:03:54;;;;;;;2.90;2.00;;;;;;;8.43;31.54;100370.59;2623695;54;20038;-63
2022/03/19 18:06:24;;;;;;;7.63;1.92;;;;;;;8.33;30.87;100371.56;2623734;54;20041;-62
2022/03/19 18:08:54;;;;;;;3.58;1.98;;;;;;;8.21;31.31;100373.50;2623367;54;20041;-63
2022/03/19 18:11:26;;;;;;;3.72;1.77;;;;;;;8.11;31.52;100378.75;2622698;54;20027;-64
2022/03/19 18:13:56;;;;;;;3.90;2.00;;;;;;;8.04;31.73;100374.16;2623419;54;20041;-63
2022/03/19 18:16:26;;;;;;;7.22;2.33;;;;;;;8.00;32.37;100367.50;2623664;54;20037;-63
2022/03/19 18:18:56;;;;;;;5.60;1.90;;;;;;;7.87;32.49;100368.63;2623814;54;20034;-66
2022/03/19 18:21:25;;;;;;;5.25;2.10;;;;;;;7.77;33.44;100370.41;2622711;54;20034;-63